createdAt,value
2024-03-02T00:07:36.749Z,32.83
2024-03-02T00:12:41.976Z,32.75
2024-03-02T00:17:44.090Z,33.45
2024-03-02T00:22:48.051Z,33.58
2024-03-02T00:27:51.666Z,33.58
2024-03-02T00:32:53.847Z,32.20
2024-03-02T00:37:56.269Z,32.28
2024-03-02T00:42:58.404Z,33.47
2024-03-02T00:48:00.397Z,33.92
2024-03-02T00:53:03.271Z,34.15
2024-03-02T00:58:05.351Z,33.05
2024-03-02T01:03:07.419Z,25.17
2024-03-02T01:08:10.228Z,34.30
2024-03-02T01:13:12.278Z,34.28
2024-03-02T01:18:14.356Z,26.67
2024-03-02T01:23:16.406Z,35.67
2024-03-02T01:28:18.663Z,35.45
2024-03-02T01:33:21.174Z,36.38
2024-03-02T01:38:23.421Z,35.60
2024-03-02T01:43:25.452Z,35.25
2024-03-02T01:48:27.576Z,36.00
2024-03-02T01:53:29.908Z,25.88
2024-03-02T01:58:31.981Z,34.83
2024-03-02T02:03:34.019Z,35.05
2024-03-02T02:08:36.107Z,32.65
2024-03-02T02:13:38.112Z,33.13
2024-03-02T02:18:40.178Z,33.78
2024-03-02T02:23:42.170Z,33.22
2024-03-02T02:28:44.164Z,31.88
2024-03-02T02:33:46.186Z,31.23
2024-03-02T02:38:48.344Z,33.13
2024-03-02T02:43:50.316Z,33.03
2024-03-02T02:48:52.463Z,33.53
2024-03-02T02:53:54.596Z,32.90
2024-03-02T02:58:56.665Z,35.42
2024-03-02T03:03:58.701Z,33.33
2024-03-02T03:09:00.798Z,26.15
2024-03-02T03:14:02.844Z,35.67
2024-03-02T03:19:04.990Z,35.03
2024-03-02T03:24:07.060Z,35.38
2024-03-02T03:29:09.132Z,35.30
2024-03-02T03:34:11.333Z,35.17
2024-03-02T03:39:13.348Z,33.00
2024-03-02T03:44:15.439Z,34.78
2024-03-02T03:49:17.446Z,34.60
2024-03-02T03:54:19.602Z,36.03
2024-03-02T03:59:21.621Z,26.65
2024-03-02T04:04:23.646Z,26.67
2024-03-02T04:09:25.729Z,36.58
2024-03-02T04:14:27.725Z,37.00
2024-03-02T04:19:29.784Z,27.35
2024-03-02T04:24:32.001Z,37.25
2024-03-02T04:29:34.077Z,36.42
2024-03-02T04:34:36.128Z,38.28
2024-03-02T04:39:38.268Z,38.00
2024-03-02T04:44:40.440Z,42.15
2024-03-02T04:49:42.528Z,40.90
2024-03-02T04:54:44.930Z,45.92
2024-03-02T04:59:47.016Z,45.63
2024-03-02T05:04:49.117Z,33.20
2024-03-02T05:09:51.200Z,46.95
2024-03-02T05:14:53.249Z,46.65
2024-03-02T05:19:55.337Z,45.83
2024-03-02T05:24:57.418Z,46.55
2024-03-02T05:29:59.772Z,33.88
2024-03-02T05:40:04.228Z,44.78
2024-03-02T05:50:08.862Z,40.83
2024-03-02T05:55:10.918Z,42.97
2024-03-02T06:00:13.336Z,40.30
2024-03-02T06:05:15.804Z,39.65
2024-03-02T06:10:17.946Z,38.80
2024-03-02T06:15:20.323Z,38.08
2024-03-02T06:20:22.335Z,39.00
2024-03-02T06:25:24.316Z,36.47
2024-03-02T06:30:26.327Z,27.57
2024-03-02T06:35:28.362Z,37.05
2024-03-02T06:40:30.301Z,36.30
2024-03-02T06:45:32.394Z,31.63
2024-03-02T06:50:34.558Z,39.15
2024-03-02T06:55:36.546Z,38.20
2024-03-02T07:00:38.660Z,39.08
2024-03-02T07:05:40.851Z,38.55
2024-03-02T07:10:42.970Z,38.85
2024-03-02T07:15:45.083Z,40.17
2024-03-02T07:20:47.107Z,40.70
2024-03-02T07:31:06.561Z,42.33
2024-03-02T07:36:08.693Z,42.50
2024-03-02T07:41:10.826Z,43.33
2024-03-02T07:46:12.928Z,43.65
2024-03-02T07:51:15.119Z,41.50
2024-03-02T07:56:17.134Z,43.20
2024-03-02T08:01:19.274Z,42.92
2024-03-02T08:06:21.357Z,43.08
2024-03-02T08:11:23.556Z,42.03
2024-03-02T08:16:25.564Z,41.15
2024-03-02T08:21:27.668Z,41.17
2024-03-02T08:26:29.619Z,40.38
2024-03-02T08:31:31.960Z,39.83
2024-03-02T08:36:34.144Z,38.58
2024-03-02T08:41:36.242Z,37.00
2024-03-02T08:46:38.239Z,36.92
2024-03-02T08:51:40.289Z,27.45
2024-03-02T08:56:42.559Z,35.60
2024-03-02T09:01:44.674Z,34.85
2024-03-02T09:06:46.694Z,35.92
2024-03-02T09:11:48.660Z,34.22
2024-03-02T09:16:50.809Z,33.83
2024-03-02T09:21:52.893Z,33.38
2024-03-02T09:26:54.988Z,31.95
2024-03-02T09:31:57.059Z,32.25
2024-03-02T09:36:59.433Z,32.80
2024-03-02T09:42:01.520Z,34.03
2024-03-02T09:47:03.623Z,32.25
2024-03-02T09:52:05.811Z,32.95
2024-03-02T09:57:08.235Z,34.42
2024-03-02T10:02:10.285Z,33.00
2024-03-02T10:07:13.855Z,33.90
2024-03-02T10:12:17.296Z,34.80
2024-03-02T10:17:19.517Z,34.53
2024-03-02T10:22:21.424Z,34.42
2024-03-02T10:27:28.673Z,34.27
2024-03-02T10:32:30.945Z,33.83
2024-03-02T10:37:33.297Z,35.15
2024-03-02T10:42:35.634Z,33.95
2024-03-02T10:47:38.545Z,33.55
2024-03-02T10:52:40.676Z,34.88
2024-03-02T10:57:53.480Z,32.65
2024-03-02T11:02:59.418Z,33.67
2024-03-02T11:08:07.923Z,34.13
2024-03-02T11:13:21.012Z,34.67
2024-03-02T11:18:23.143Z,33.15
2024-03-02T11:23:34.451Z,32.30
2024-03-02T11:28:37.056Z,33.13
2024-03-02T11:33:40.235Z,32.35
2024-03-02T11:38:42.369Z,31.45
2024-03-02T11:43:44.371Z,33.38
2024-03-02T11:48:46.549Z,32.57
2024-03-02T11:58:53.737Z,32.78
2024-03-02T12:03:56.163Z,34.58
2024-03-02T12:08:58.271Z,32.28
2024-03-02T12:14:00.256Z,33.25
2024-03-02T12:19:02.261Z,34.20
2024-03-02T12:24:04.391Z,30.63
2024-03-02T12:29:06.739Z,33.00
2024-03-02T12:34:09.051Z,33.10
2024-03-02T12:39:11.027Z,30.42
2024-03-02T12:44:13.091Z,32.33
2024-03-02T12:49:16.159Z,30.67
2024-03-02T12:54:18.367Z,31.17
2024-03-02T12:59:24.815Z,31.23
2024-03-02T13:04:27.285Z,29.83
2024-03-02T13:09:29.370Z,30.25
2024-03-02T13:14:34.330Z,29.42
2024-03-02T13:19:36.693Z,30.73
2024-03-02T13:24:38.631Z,30.63
2024-03-02T13:29:40.728Z,29.00
2024-03-02T13:34:43.116Z,27.80
2024-03-02T13:39:45.092Z,27.77
2024-03-02T13:44:47.457Z,28.30
2024-03-02T13:49:49.964Z,27.23
2024-03-02T13:59:54.358Z,26.95
2024-03-02T14:09:58.436Z,24.38
2024-03-02T14:15:00.408Z,18.77
2024-03-02T14:20:02.471Z,23.63
2024-03-02T14:25:06.952Z,24.52
2024-03-02T14:30:09.817Z,24.08
2024-03-02T14:40:14.015Z,25.45
2024-03-02T14:45:16.035Z,24.98
2024-03-02T14:50:18.114Z,24.92
2024-03-02T14:55:20.177Z,25.38
2024-03-02T15:00:23.516Z,25.80
2024-03-02T15:05:25.739Z,24.88
2024-03-02T15:10:27.703Z,26.83
2024-03-02T15:15:29.653Z,26.50
2024-03-02T15:20:31.634Z,27.87
2024-03-02T15:25:33.794Z,27.90
2024-03-02T15:30:35.892Z,26.95
2024-03-02T15:35:38.024Z,29.23
2024-03-02T15:40:58.567Z,27.90
2024-03-02T15:46:00.719Z,27.80
2024-03-02T15:51:05.745Z,27.73
2024-03-02T15:56:09.997Z,25.92
2024-03-02T16:01:12.277Z,28.50
2024-03-02T16:06:14.394Z,28.33
2024-03-02T16:11:16.565Z,27.58
2024-03-02T16:16:18.756Z,28.05
2024-03-02T16:21:21.516Z,29.17
2024-03-02T16:26:24.223Z,29.33
2024-03-02T16:31:26.195Z,31.08
2024-03-02T16:36:28.227Z,31.05
2024-03-02T16:41:30.247Z,29.63
2024-03-02T16:46:32.161Z,28.88
2024-03-02T16:51:43.752Z,29.17
2024-03-02T16:56:45.924Z,27.38
2024-03-02T17:01:48.016Z,27.52
2024-03-02T17:06:50.268Z,28.85
2024-03-02T17:11:52.412Z,28.90
2024-03-02T17:16:54.497Z,28.65
2024-03-02T17:21:56.520Z,25.08
2024-03-02T17:26:58.605Z,29.35
2024-03-02T17:32:00.701Z,30.25
2024-03-02T17:37:02.893Z,29.58
2024-03-02T17:42:05.296Z,31.70
2024-03-02T17:47:07.533Z,31.88
2024-03-02T17:52:10.925Z,28.35
2024-03-02T17:57:12.951Z,27.00
2024-03-02T18:02:14.974Z,20.77
2024-03-02T18:07:17.132Z,23.27
2024-03-02T18:12:19.168Z,22.77
2024-03-02T18:17:21.128Z,16.90
2024-03-02T18:22:23.184Z,21.90
2024-03-02T18:27:25.175Z,23.40
2024-03-02T18:32:27.097Z,23.27
2024-03-02T18:37:29.036Z,23.53
2024-03-02T18:42:49.481Z,22.53
2024-03-02T18:47:51.479Z,22.60
2024-03-02T18:52:53.441Z,25.30
2024-03-02T18:57:55.550Z,24.50
2024-03-02T19:02:57.505Z,23.88
2024-03-02T19:07:59.449Z,21.00
2024-03-02T19:13:01.581Z,16.87
2024-03-02T19:18:03.858Z,18.48
2024-03-02T19:23:05.988Z,19.25
2024-03-02T19:28:08.049Z,19.98
2024-03-02T19:33:10.151Z,20.05
2024-03-02T19:38:12.204Z,14.90
2024-03-02T19:43:14.205Z,21.10
2024-03-02T19:48:34.905Z,19.50
2024-03-02T19:53:36.930Z,20.45
2024-03-02T19:58:38.961Z,19.42
2024-03-02T20:03:41.093Z,20.65
2024-03-02T20:08:43.095Z,20.52
2024-03-02T20:13:45.133Z,23.02
2024-03-02T20:18:47.181Z,21.02
2024-03-02T20:23:49.475Z,22.30
2024-03-02T20:29:10.152Z,23.75
2024-03-02T20:34:12.340Z,25.33
2024-03-02T20:39:14.579Z,26.48
2024-03-02T20:44:17.186Z,27.52
2024-03-02T20:49:19.554Z,28.77
2024-03-02T20:54:21.658Z,27.75
2024-03-02T20:59:23.638Z,29.02
2024-03-02T21:04:25.623Z,27.30
2024-03-02T21:09:27.745Z,27.63
2024-03-02T21:14:29.895Z,25.42
2024-03-02T21:19:31.918Z,25.95
2024-03-02T21:24:34.401Z,26.55
2024-03-02T21:29:36.733Z,25.45
2024-03-02T21:34:38.938Z,26.02
2024-03-02T21:39:46.918Z,23.20
2024-03-02T21:44:49.659Z,22.83
2024-03-02T21:49:51.700Z,21.45
2024-03-02T21:54:53.892Z,21.35
2024-03-02T22:04:58.673Z,19.50
2024-03-02T22:10:00.758Z,18.60
2024-03-02T22:15:02.937Z,18.63
2024-03-02T22:20:06.687Z,18.40
2024-03-02T22:30:11.322Z,15.98
2024-03-02T22:40:15.441Z,16.15
2024-03-02T22:45:18.133Z,15.10
2024-03-02T22:50:20.262Z,15.20
2024-03-02T22:55:22.395Z,15.68
2024-03-02T23:00:24.507Z,15.20
2024-03-02T23:05:26.531Z,15.30
2024-03-02T23:10:28.793Z,14.57
2024-03-02T23:15:31.718Z,14.68
2024-03-02T23:20:33.969Z,14.75
2024-03-02T23:25:36.127Z,13.65
2024-03-02T23:30:38.300Z,13.82
2024-03-02T23:35:40.535Z,14.23
2024-03-02T23:40:42.742Z,14.27
2024-03-02T23:45:44.880Z,13.52
2024-03-02T23:50:47.036Z,13.88
2024-03-02T23:55:52.691Z,13.00
